createdAt,value
2023-01-18T00:00:15.734Z,0
2023-01-18T00:01:16.399Z,0
2023-01-18T00:02:17.055Z,0
2023-01-18T00:03:17.651Z,0
2023-01-18T00:04:18.256Z,0
2023-01-18T00:05:18.856Z,0
2023-01-18T00:06:19.458Z,0
2023-01-18T00:07:20.050Z,0
2023-01-18T00:08:20.654Z,0
2023-01-18T00:09:21.250Z,0
2023-01-18T00:10:21.856Z,0
2023-01-18T00:11:22.454Z,0
2023-01-18T00:12:23.212Z,0
2023-01-18T00:13:23.799Z,0
2023-01-18T00:14:24.451Z,0
2023-01-18T00:15:25.047Z,0
2023-01-18T00:16:25.704Z,0
2023-01-18T00:17:26.322Z,0
2023-01-18T00:18:26.926Z,0
2023-01-18T00:19:28.368Z,0
2023-01-18T00:20:28.973Z,0
2023-01-18T00:21:29.568Z,0
2023-01-18T00:22:30.172Z,0
2023-01-18T00:23:30.772Z,0
2023-01-18T00:24:31.373Z,0
2023-01-18T00:25:31.982Z,0
2023-01-18T00:26:32.577Z,0
2023-01-18T00:27:33.173Z,0
2023-01-18T00:28:33.778Z,0
2023-01-18T00:29:34.445Z,0
2023-01-18T00:30:35.900Z,0
2023-01-18T00:31:36.665Z,0
2023-01-18T00:32:37.253Z,0
2023-01-18T00:33:37.906Z,0
2023-01-18T00:34:38.647Z,0
2023-01-18T00:35:39.243Z,0
2023-01-18T00:36:39.846Z,0
2023-01-18T00:37:40.445Z,0
2023-01-18T00:38:41.042Z,0
2023-01-18T00:39:41.632Z,0
2023-01-18T00:40:42.236Z,0
2023-01-18T00:41:42.833Z,0
2023-01-18T00:42:43.438Z,0
2023-01-18T00:43:44.152Z,0
2023-01-18T00:44:44.755Z,0
2023-01-18T00:45:45.367Z,0
2023-01-18T00:46:46.016Z,0
2023-01-18T00:47:47.455Z,0
2023-01-18T00:48:48.071Z,0
2023-01-18T00:49:48.655Z,0
2023-01-18T00:50:49.323Z,0
2023-01-18T00:51:49.920Z,0
2023-01-18T00:52:50.525Z,0
2023-01-18T00:53:51.116Z,0
2023-01-18T00:54:51.720Z,0
2023-01-18T00:55:52.315Z,0
2023-01-18T00:56:52.922Z,0
2023-01-18T00:57:53.528Z,0
2023-01-18T00:58:54.188Z,0
2023-01-18T00:59:54.783Z,0
2023-01-18T01:00:55.546Z,0
2023-01-18T01:01:56.379Z,0
2023-01-18T01:02:57.522Z,0
2023-01-18T01:03:57.741Z,0
2023-01-18T01:04:58.342Z,0
2023-01-18T01:05:58.930Z,0
2023-01-18T01:06:59.535Z,0
2023-01-18T01:08:00.137Z,0
2023-01-18T01:09:00.734Z,0
2023-01-18T01:10:01.329Z,0
2023-01-18T01:11:01.933Z,0
2023-01-18T01:12:02.537Z,0
2023-01-18T01:13:03.197Z,0
2023-01-18T01:14:03.793Z,0
2023-01-18T01:15:04.398Z,0
2023-01-18T01:16:04.996Z,0
2023-01-18T01:17:05.663Z,0
2023-01-18T01:18:06.256Z,0
2023-01-18T01:19:06.860Z,0
2023-01-18T01:20:07.455Z,0
2023-01-18T01:21:08.061Z,0
2023-01-18T01:22:08.655Z,0
2023-01-18T01:23:09.268Z,0
2023-01-18T01:24:09.860Z,0
2023-01-18T01:25:10.463Z,0
2023-01-18T01:26:11.116Z,0
2023-01-18T01:27:11.720Z,0
2023-01-18T01:28:12.318Z,0
2023-01-18T01:29:12.921Z,0
2023-01-18T01:30:13.517Z,0
2023-01-18T01:31:14.133Z,0
2023-01-18T01:32:14.714Z,0
2023-01-18T01:33:15.317Z,0
2023-01-18T01:34:15.909Z,0
2023-01-18T01:35:17.363Z,0
2023-01-18T01:36:18.107Z,0
2023-01-18T01:37:18.756Z,0
2023-01-18T01:38:19.354Z,0
2023-01-18T01:39:20.022Z,0
2023-01-18T01:40:20.613Z,0
2023-01-18T01:41:21.218Z,0
2023-01-18T01:42:22.612Z,0
2023-01-18T01:43:23.214Z,0
2023-01-18T01:44:24.671Z,0
2023-01-18T01:45:25.261Z,0
2023-01-18T01:46:25.882Z,0
2023-01-18T01:47:26.639Z,0
2023-01-18T01:48:27.233Z,0
2023-01-18T01:49:27.888Z,0
2023-01-18T01:50:28.552Z,0
2023-01-18T01:51:29.154Z,0
2023-01-18T01:52:29.749Z,0
2023-01-18T01:53:30.351Z,0
2023-01-18T01:54:30.947Z,0
2023-01-18T01:55:31.552Z,0
2023-01-18T01:56:32.229Z,0
2023-01-18T01:57:32.838Z,0
2023-01-18T01:58:33.573Z,0
2023-01-18T01:59:34.178Z,0
2023-01-18T02:00:34.839Z,0
2023-01-18T02:01:35.554Z,0
2023-01-18T02:02:36.297Z,0
2023-01-18T02:03:36.914Z,0
2023-01-18T02:04:37.506Z,0
2023-01-18T02:05:38.110Z,0
2023-01-18T02:06:38.703Z,0
2023-01-18T02:07:39.305Z,0
2023-01-18T02:08:39.901Z,0
2023-01-18T02:09:40.501Z,0
2023-01-18T02:10:41.094Z,0
2023-01-18T02:11:41.718Z,0
2023-01-18T02:12:42.360Z,0
2023-01-18T02:13:42.960Z,0
2023-01-18T02:14:43.555Z,0
2023-01-18T02:15:44.159Z,0
2023-01-18T02:16:44.766Z,0
2023-01-18T02:17:45.367Z,0
2023-01-18T02:18:45.961Z,0
2023-01-18T02:19:46.561Z,0
2023-01-18T02:20:47.155Z,0
2023-01-18T02:21:47.756Z,0
2023-01-18T02:22:48.369Z,0
2023-01-18T02:23:49.009Z,0
2023-01-18T02:24:49.605Z,0
2023-01-18T02:25:50.234Z,0
2023-01-18T02:26:50.863Z,0
2023-01-18T02:27:51.479Z,0
2023-01-18T02:28:52.073Z,0
2023-01-18T02:29:52.685Z,0
2023-01-18T02:30:53.332Z,0
2023-01-18T02:31:53.922Z,0
2023-01-18T02:32:54.951Z,0
2023-01-18T02:33:55.745Z,0
2023-01-18T02:34:56.338Z,0
2023-01-18T02:35:56.961Z,0
2023-01-18T02:36:57.555Z,0
2023-01-18T02:37:58.155Z,0
2023-01-18T02:38:58.748Z,0
2023-01-18T02:39:59.352Z,0
2023-01-18T02:40:59.947Z,0
2023-01-18T02:42:01.401Z,0
2023-01-18T02:43:02.045Z,0
2023-01-18T02:44:02.807Z,0
2023-01-18T02:45:03.402Z,0
2023-01-18T02:46:04.101Z,0
2023-01-18T02:47:04.723Z,0
2023-01-18T02:48:05.319Z,0
2023-01-18T02:49:05.925Z,0
2023-01-18T02:50:06.590Z,0
2023-01-18T02:51:07.202Z,0
2023-01-18T02:52:07.789Z,0
2023-01-18T02:53:08.395Z,0
2023-01-18T02:54:08.980Z,0
2023-01-18T02:55:09.588Z,0
2023-01-18T02:56:10.232Z,0
2023-01-18T02:57:10.830Z,0
2023-01-18T02:58:11.430Z,0
2023-01-18T02:59:12.028Z,0
2023-01-18T03:00:12.623Z,0
2023-01-18T03:01:13.359Z,0
2023-01-18T03:02:14.061Z,0
2023-01-18T03:03:14.720Z,0
2023-01-18T03:04:16.166Z,0
2023-01-18T03:05:16.769Z,0
2023-01-18T03:06:17.359Z,0
2023-01-18T03:07:18.026Z,0
2023-01-18T03:08:18.618Z,0
2023-01-18T03:09:19.231Z,0
2023-01-18T03:10:19.816Z,0
2023-01-18T03:11:20.419Z,0
2023-01-18T03:12:21.023Z,0
2023-01-18T03:13:21.615Z,0
2023-01-18T03:14:22.207Z,0
2023-01-18T03:15:22.807Z,0
2023-01-18T03:16:23.399Z,0
2023-01-18T03:17:24.002Z,0
2023-01-18T03:18:24.596Z,0
2023-01-18T03:19:25.201Z,0
2023-01-18T03:20:25.830Z,0
2023-01-18T03:21:26.422Z,0
2023-01-18T03:22:27.014Z,0
2023-01-18T03:23:27.617Z,0
2023-01-18T03:24:28.210Z,0
2023-01-18T03:25:28.852Z,0
2023-01-18T03:26:29.458Z,0
2023-01-18T03:27:30.042Z,0
2023-01-18T03:28:30.636Z,0
2023-01-18T03:29:31.245Z,0
2023-01-18T03:30:31.834Z,0
2023-01-18T03:31:32.438Z,0
2023-01-18T03:32:33.033Z,0
2023-01-18T03:33:33.633Z,0
2023-01-18T03:34:34.230Z,0
2023-01-18T03:35:34.831Z,0
2023-01-18T03:36:35.430Z,0
2023-01-18T03:37:36.030Z,0
2023-01-18T03:38:36.630Z,0
2023-01-18T03:39:37.238Z,0
2023-01-18T03:40:37.825Z,0
2023-01-18T03:41:38.430Z,0
2023-01-18T03:42:39.172Z,0
2023-01-18T03:43:39.777Z,0
2023-01-18T03:44:40.367Z,0
2023-01-18T03:45:40.966Z,0
2023-01-18T03:46:41.615Z,0
2023-01-18T03:47:42.218Z,0
2023-01-18T03:48:42.804Z,0
2023-01-18T03:49:43.406Z,0
2023-01-18T03:50:44.045Z,0
2023-01-18T03:51:44.648Z,0
2023-01-18T03:52:45.242Z,0
2023-01-18T03:53:45.844Z,0
2023-01-18T03:54:46.439Z,0
2023-01-18T03:55:47.045Z,0
2023-01-18T03:56:47.638Z,0
2023-01-18T03:57:48.238Z,0
2023-01-18T03:58:48.832Z,0
2023-01-18T03:59:49.434Z,0
2023-01-18T04:00:50.070Z,0
2023-01-18T04:01:50.840Z,0
2023-01-18T04:02:51.626Z,0
2023-01-18T04:03:52.236Z,0
2023-01-18T04:04:55.135Z,0
2023-01-18T04:05:54.477Z,0
2023-01-18T04:06:55.072Z,0
2023-01-18T04:07:55.680Z,0
2023-01-18T04:08:56.268Z,0
2023-01-18T04:09:56.871Z,0
2023-01-18T04:10:57.463Z,0
2023-01-18T04:11:58.126Z,0
2023-01-18T04:12:59.071Z,0
2023-01-18T04:13:59.926Z,0
2023-01-18T04:15:00.524Z,0
2023-01-18T04:16:01.170Z,0
2023-01-18T04:17:01.787Z,0
2023-01-18T04:18:02.387Z,0
2023-01-18T04:19:02.991Z,0
2023-01-18T04:20:03.585Z,0
2023-01-18T04:21:04.178Z,0
2023-01-18T04:22:04.860Z,0
2023-01-18T04:23:05.443Z,0
2023-01-18T04:24:06.108Z,0
2023-01-18T04:25:06.705Z,0
2023-01-18T04:26:07.303Z,0
2023-01-18T04:27:07.899Z,0
2023-01-18T04:28:08.504Z,0
2023-01-18T04:29:09.147Z,0
2023-01-18T04:30:09.754Z,0
2023-01-18T04:31:10.380Z,0
2023-01-18T04:32:10.969Z,0
2023-01-18T04:33:11.562Z,0
2023-01-18T04:34:12.231Z,0
2023-01-18T04:35:12.902Z,0
2023-01-18T04:36:13.502Z,0
2023-01-18T04:37:14.092Z,0
2023-01-18T04:38:14.697Z,0
2023-01-18T04:39:16.091Z,0
2023-01-18T04:40:16.693Z,0
2023-01-18T04:41:17.287Z,0
2023-01-18T04:42:17.887Z,0
2023-01-18T04:43:18.480Z,0
2023-01-18T04:44:19.083Z,0
2023-01-18T04:45:19.725Z,0
2023-01-18T04:46:20.406Z,0
2023-01-18T04:47:21.011Z,0
2023-01-18T04:48:21.621Z,0
2023-01-18T04:49:22.355Z,0
2023-01-18T04:50:22.963Z,0
2023-01-18T04:51:23.551Z,0
2023-01-18T04:52:24.155Z,0
2023-01-18T04:53:24.752Z,0
2023-01-18T04:54:25.368Z,0
2023-01-18T04:55:26.014Z,0
2023-01-18T04:56:27.415Z,0
2023-01-18T04:57:28.005Z,0
2023-01-18T04:58:28.607Z,0
2023-01-18T04:59:29.204Z,0
2023-01-18T05:00:29.843Z,0
2023-01-18T05:01:30.537Z,0
2023-01-18T05:02:31.358Z,0
2023-01-18T05:03:31.961Z,0
2023-01-18T05:04:32.568Z,0
2023-01-18T05:05:33.156Z,0
2023-01-18T05:06:33.764Z,0
2023-01-18T05:07:34.362Z,0
2023-01-18T05:08:35.036Z,0
2023-01-18T05:09:35.811Z,0
2023-01-18T05:10:36.421Z,0
2023-01-18T05:11:37.088Z,0
2023-01-18T05:12:37.700Z,0
2023-01-18T05:13:38.292Z,0
2023-01-18T05:14:38.883Z,0
2023-01-18T05:15:39.482Z,0
2023-01-18T05:16:40.125Z,0
2023-01-18T05:17:40.760Z,0
2023-01-18T05:18:41.359Z,0
2023-01-18T05:19:42.012Z,0
2023-01-18T05:20:42.605Z,0
2023-01-18T05:21:43.196Z,0
2023-01-18T05:22:43.800Z,0
2023-01-18T05:23:44.395Z,0
2023-01-18T05:24:44.999Z,0
2023-01-18T05:25:45.598Z,0
2023-01-18T05:26:46.257Z,0
2023-01-18T05:27:46.852Z,0
2023-01-18T05:28:47.457Z,0
2023-01-18T05:29:48.052Z,0
2023-01-18T05:30:48.651Z,0
2023-01-18T05:31:49.288Z,0
2023-01-18T05:32:49.875Z,0
2023-01-18T05:33:50.471Z,0
2023-01-18T05:34:51.080Z,0
2023-01-18T05:35:51.672Z,0
2023-01-18T05:36:52.272Z,0
2023-01-18T05:37:52.871Z,0
2023-01-18T05:38:53.471Z,0
2023-01-18T05:39:54.136Z,0
2023-01-18T05:40:54.781Z,0
2023-01-18T05:41:55.399Z,0
2023-01-18T05:42:57.223Z,0
2023-01-18T05:43:57.987Z,0
2023-01-18T05:44:58.587Z,0
2023-01-18T05:45:59.251Z,0
2023-01-18T05:46:59.842Z,0
2023-01-18T05:48:00.447Z,0
2023-01-18T05:49:01.038Z,0
2023-01-18T05:50:01.682Z,0
2023-01-18T05:51:02.287Z,0
2023-01-18T05:52:02.877Z,0
2023-01-18T05:53:03.481Z,0
2023-01-18T05:54:04.074Z,0
2023-01-18T05:55:04.678Z,0
2023-01-18T05:56:05.268Z,0
2023-01-18T05:57:05.985Z,0
2023-01-18T05:58:06.580Z,0
2023-01-18T05:59:07.180Z,0
2023-01-18T06:00:07.772Z,0
2023-01-18T06:01:08.401Z,0
2023-01-18T06:02:09.089Z,0
2023-01-18T06:03:10.867Z,0
2023-01-18T06:04:11.351Z,0
2023-01-18T06:05:12.002Z,0
2023-01-18T06:06:12.649Z,0
2023-01-18T06:07:13.250Z,0
2023-01-18T06:08:13.845Z,0
2023-01-18T06:09:14.446Z,0
2023-01-18T06:10:15.041Z,0
2023-01-18T06:11:15.645Z,0
2023-01-18T06:12:16.239Z,0
2023-01-18T06:13:16.843Z,0
2023-01-18T06:14:17.436Z,0
2023-01-18T06:15:18.046Z,0
2023-01-18T06:16:18.643Z,0
2023-01-18T06:17:19.238Z,0
2023-01-18T06:18:19.828Z,0
2023-01-18T06:19:20.436Z,0
2023-01-18T06:20:21.026Z,0
2023-01-18T06:21:21.674Z,0
2023-01-18T06:22:22.272Z,0
2023-01-18T06:23:22.877Z,0
2023-01-18T06:24:23.467Z,0
2023-01-18T06:25:24.070Z,0
2023-01-18T06:26:24.726Z,0
2023-01-18T06:27:25.376Z,0
2023-01-18T06:28:25.972Z,0
2023-01-18T06:29:26.571Z,0
2023-01-18T06:30:28.011Z,0
2023-01-18T06:31:28.655Z,0
2023-01-18T06:32:30.100Z,0
2023-01-18T06:33:30.718Z,0
2023-01-18T06:34:31.303Z,0
2023-01-18T06:35:31.957Z,0
2023-01-18T06:36:32.548Z,0
2023-01-18T06:37:33.150Z,0
2023-01-18T06:38:33.795Z,0
2023-01-18T06:39:34.394Z,0
2023-01-18T06:40:34.997Z,0
2023-01-18T06:41:35.589Z,0
2023-01-18T06:42:36.181Z,0
2023-01-18T06:43:36.783Z,0
2023-01-18T06:44:37.451Z,0
2023-01-18T06:45:38.092Z,0
2023-01-18T06:46:38.730Z,0
2023-01-18T06:47:39.334Z,0
2023-01-18T06:48:39.925Z,0
2023-01-18T06:49:40.527Z,0
2023-01-18T06:50:41.121Z,0
2023-01-18T06:51:41.724Z,0
2023-01-18T06:52:42.316Z,0
2023-01-18T06:53:42.920Z,0
2023-01-18T06:54:43.513Z,0
2023-01-18T06:55:44.118Z,0
2023-01-18T06:56:44.710Z,0
2023-01-18T06:57:45.310Z,0
2023-01-18T06:58:45.903Z,0
2023-01-18T06:59:46.506Z,0
2023-01-18T07:00:48.009Z,0
2023-01-18T07:01:48.789Z,0
2023-01-18T07:02:49.467Z,0
2023-01-18T07:03:50.103Z,0
2023-01-18T07:04:50.731Z,0
2023-01-18T07:05:51.387Z,0
2023-01-18T07:06:51.983Z,0
2023-01-18T07:07:52.583Z,0
2023-01-18T07:08:53.179Z,0
2023-01-18T07:09:53.774Z,0
2023-01-18T07:10:54.412Z,0
2023-01-18T07:11:55.041Z,0
2023-01-18T07:12:55.792Z,0
2023-01-18T07:13:56.423Z,0
2023-01-18T07:14:57.027Z,0
2023-01-18T07:16:00.024Z,0
2023-01-18T07:16:58.315Z,0
2023-01-18T07:17:58.919Z,0
2023-01-18T07:18:59.596Z,0
2023-01-18T07:20:00.199Z,0
2023-01-18T07:21:00.792Z,0
2023-01-18T07:22:01.388Z,0
2023-01-18T07:23:01.993Z,0
2023-01-18T07:24:02.586Z,0
2023-01-18T07:25:03.195Z,0
2023-01-18T07:26:03.792Z,0
2023-01-18T07:27:04.386Z,0
2023-01-18T07:28:04.986Z,0
2023-01-18T07:29:05.735Z,0
2023-01-18T07:30:06.339Z,0
2023-01-18T07:31:06.932Z,0
2023-01-18T07:32:07.776Z,0
2023-01-18T07:33:08.419Z,0
2023-01-18T07:34:09.013Z,0
2023-01-18T07:35:09.615Z,0
2023-01-18T07:36:11.084Z,0
2023-01-18T07:37:11.721Z,0
2023-01-18T07:38:12.321Z,0
2023-01-18T07:39:13.868Z,0
2023-01-18T07:40:14.460Z,0
2023-01-18T07:41:15.061Z,0
2023-01-18T07:42:15.804Z,0
2023-01-18T07:43:16.408Z,0
2023-01-18T07:44:17.002Z,0
2023-01-18T07:45:17.602Z,0
2023-01-18T07:46:18.234Z,0
2023-01-18T07:47:18.839Z,0
2023-01-18T07:48:19.487Z,0
2023-01-18T07:49:20.089Z,0
2023-01-18T07:50:20.689Z,0
2023-01-18T07:51:21.287Z,0
2023-01-18T07:52:21.881Z,0
2023-01-18T07:53:22.546Z,0
2023-01-18T07:54:23.212Z,0
2023-01-18T07:55:23.860Z,0
2023-01-18T07:56:24.459Z,0
2023-01-18T07:57:25.057Z,0
2023-01-18T07:58:25.647Z,0
2023-01-18T07:59:26.252Z,4
2023-01-18T08:00:26.851Z,4
2023-01-18T08:01:27.587Z,4
2023-01-18T08:02:28.270Z,4
2023-01-18T08:03:28.879Z,4
2023-01-18T08:04:29.475Z,0
2023-01-18T08:05:30.073Z,0
2023-01-18T08:06:30.668Z,0
2023-01-18T08:07:31.271Z,0
2023-01-18T08:08:31.944Z,0
2023-01-18T08:09:32.549Z,0
2023-01-18T08:10:33.262Z,0
2023-01-18T08:11:33.864Z,0
2023-01-18T08:12:34.469Z,0
2023-01-18T08:13:35.095Z,0
2023-01-18T08:14:35.724Z,0
2023-01-18T08:15:36.364Z,0
2023-01-18T08:16:36.950Z,0
2023-01-18T08:17:37.553Z,0
2023-01-18T08:18:38.164Z,0
2023-01-18T08:19:38.773Z,0
2023-01-18T08:20:39.359Z,0
2023-01-18T08:21:39.960Z,0
2023-01-18T08:22:40.573Z,0
2023-01-18T08:23:41.166Z,0
2023-01-18T08:24:41.784Z,0
2023-01-18T08:25:42.409Z,0
2023-01-18T08:26:43.003Z,0
2023-01-18T08:27:43.603Z,0
2023-01-18T08:28:44.195Z,0
2023-01-18T08:29:44.800Z,0
2023-01-18T08:30:45.490Z,0
2023-01-18T08:31:46.138Z,0
2023-01-18T08:32:46.742Z,0
2023-01-18T08:33:47.346Z,0
2023-01-18T08:34:48.011Z,0
2023-01-18T08:35:48.619Z,0
2023-01-18T08:36:49.268Z,0
2023-01-18T08:37:49.875Z,0
2023-01-18T08:38:50.472Z,0
2023-01-18T08:39:51.069Z,0
2023-01-18T08:40:51.714Z,0
2023-01-18T08:41:52.321Z,0
2023-01-18T08:42:52.958Z,0
2023-01-18T08:43:53.609Z,0
2023-01-18T08:44:54.211Z,0
2023-01-18T08:45:54.809Z,0
2023-01-18T08:46:55.401Z,0
2023-01-18T08:47:55.998Z,0
2023-01-18T08:48:56.592Z,0
2023-01-18T08:49:57.243Z,0
2023-01-18T08:50:57.839Z,0
2023-01-18T08:51:58.440Z,0
2023-01-18T08:52:59.500Z,0
2023-01-18T08:54:00.304Z,0
2023-01-18T08:55:00.897Z,0
2023-01-18T08:56:01.536Z,0
2023-01-18T08:57:02.112Z,0
2023-01-18T08:58:02.714Z,0
2023-01-18T08:59:03.436Z,0
2023-01-18T09:00:04.018Z,0
2023-01-18T09:01:04.617Z,0
2023-01-18T09:02:05.261Z,0
2023-01-18T09:03:05.880Z,0
2023-01-18T09:04:06.518Z,0
2023-01-18T09:05:07.117Z,0
2023-01-18T09:06:07.717Z,0
2023-01-18T09:07:08.312Z,0
2023-01-18T09:08:08.915Z,0
2023-01-18T09:09:09.512Z,0
2023-01-18T09:10:10.166Z,0
2023-01-18T09:11:10.777Z,0
2023-01-18T09:12:11.375Z,8
2023-01-18T09:13:12.053Z,4
2023-01-18T09:14:12.639Z,8
2023-01-18T09:15:14.084Z,8
2023-01-18T09:16:14.697Z,4
2023-01-18T09:17:15.284Z,4
2023-01-18T09:18:15.892Z,4
2023-01-18T09:19:16.497Z,4
2023-01-18T09:20:18.851Z,4
2023-01-18T09:21:18.755Z,4
2023-01-18T09:22:19.419Z,4
2023-01-18T09:23:20.014Z,4
2023-01-18T09:24:20.623Z,4
2023-01-18T09:25:21.274Z,4
2023-01-18T09:26:21.875Z,4
2023-01-18T09:27:22.471Z,4
2023-01-18T09:28:23.073Z,4
2023-01-18T09:29:23.677Z,4
2023-01-18T09:30:24.271Z,4
2023-01-18T09:31:24.888Z,4
2023-01-18T09:32:25.558Z,8
2023-01-18T09:33:36.914Z,8
2023-01-18T09:34:27.785Z,8
2023-01-18T09:35:28.409Z,8
2023-01-18T09:36:29.000Z,8
2023-01-18T09:37:29.589Z,8
2023-01-18T09:38:30.191Z,8
2023-01-18T09:39:40.222Z,4
2023-01-18T09:40:32.377Z,4
2023-01-18T09:41:32.970Z,8
2023-01-18T09:42:33.573Z,12
2023-01-18T09:43:34.315Z,12
2023-01-18T09:44:34.919Z,12
2023-01-18T09:45:35.530Z,16
2023-01-18T09:46:36.241Z,16
2023-01-18T09:47:36.893Z,12
2023-01-18T09:48:37.495Z,16
2023-01-18T09:49:38.092Z,12
2023-01-18T09:50:38.694Z,16
2023-01-18T09:51:39.491Z,8
2023-01-18T09:52:40.936Z,8
2023-01-18T09:53:41.530Z,16
2023-01-18T09:54:42.132Z,16
2023-01-18T09:55:42.727Z,12
2023-01-18T09:56:43.327Z,4
2023-01-18T09:57:43.922Z,4
2023-01-18T09:58:44.522Z,0
2023-01-18T09:59:45.115Z,4
2023-01-18T10:00:46.580Z,0
2023-01-18T10:01:47.370Z,0
2023-01-18T10:02:48.162Z,4
2023-01-18T10:03:48.760Z,4
2023-01-18T10:04:49.348Z,0
2023-01-18T10:05:49.960Z,4
2023-01-18T10:06:50.637Z,4
2023-01-18T10:07:51.231Z,4
2023-01-18T10:08:51.832Z,4
2023-01-18T10:09:52.429Z,4
2023-01-18T10:10:53.029Z,4
2023-01-18T10:11:53.623Z,4
2023-01-18T10:12:54.225Z,4
2023-01-18T10:13:54.949Z,8
2023-01-18T10:14:55.615Z,4
2023-01-18T10:15:56.227Z,8
2023-01-18T10:16:56.820Z,8
2023-01-18T10:17:57.420Z,8
2023-01-18T10:18:58.871Z,8
2023-01-18T10:19:59.464Z,8
2023-01-18T10:21:00.094Z,8
2023-01-18T10:22:00.730Z,8
2023-01-18T10:23:01.495Z,8
2023-01-18T10:24:02.133Z,4
2023-01-18T10:25:02.727Z,8
2023-01-18T10:26:03.327Z,8
2023-01-18T10:27:03.923Z,8
2023-01-18T10:28:04.570Z,12
2023-01-18T10:29:05.163Z,20
2023-01-18T10:30:05.751Z,24
2023-01-18T10:31:06.442Z,16
2023-01-18T10:32:07.016Z,12
2023-01-18T10:33:07.621Z,8
2023-01-18T10:34:08.213Z,8
2023-01-18T10:35:08.815Z,8
2023-01-18T10:36:11.574Z,4
2023-01-18T10:37:10.082Z,8
2023-01-18T10:38:10.664Z,8
2023-01-18T10:39:11.264Z,8
2023-01-18T10:40:11.859Z,8
2023-01-18T10:41:12.459Z,8
2023-01-18T10:42:13.051Z,8
2023-01-18T10:43:13.656Z,8
2023-01-18T10:44:14.250Z,24
2023-01-18T10:45:15.005Z,32
2023-01-18T10:46:15.599Z,32
2023-01-18T10:47:17.670Z,28
2023-01-18T10:48:17.794Z,12
2023-01-18T10:49:18.395Z,16
2023-01-18T10:50:18.996Z,16
2023-01-18T10:51:20.401Z,16
2023-01-18T10:52:20.990Z,32
2023-01-18T10:53:22.457Z,28
2023-01-18T10:54:23.905Z,28
2023-01-18T10:55:24.505Z,28
2023-01-18T10:56:25.341Z,28
2023-01-18T10:57:25.959Z,16
2023-01-18T10:58:26.555Z,20
2023-01-18T10:59:27.154Z,24
2023-01-18T11:00:27.810Z,28
2023-01-18T11:01:28.612Z,24
2023-01-18T11:02:29.311Z,28
2023-01-18T11:03:29.928Z,28
2023-01-18T11:04:30.527Z,24
2023-01-18T11:05:31.138Z,28
2023-01-18T11:06:31.803Z,24
2023-01-18T11:07:32.471Z,28
2023-01-18T11:08:33.121Z,20
2023-01-18T11:09:33.723Z,16
2023-01-18T11:10:34.361Z,24
2023-01-18T11:11:34.964Z,20
2023-01-18T11:12:35.557Z,24
2023-01-18T11:13:36.159Z,32
2023-01-18T11:14:36.755Z,32
2023-01-18T11:15:37.359Z,20
2023-01-18T11:16:37.949Z,16
2023-01-18T11:17:38.553Z,12
2023-01-18T11:18:39.143Z,8
2023-01-18T11:19:39.745Z,8
2023-01-18T11:20:40.339Z,8
2023-01-18T11:21:40.975Z,8
2023-01-18T11:22:41.660Z,8
2023-01-18T11:23:43.806Z,12
2023-01-18T11:24:43.853Z,12
2023-01-18T11:25:44.512Z,12
2023-01-18T11:26:45.114Z,16
2023-01-18T11:27:45.787Z,12
2023-01-18T11:28:46.394Z,12
2023-01-18T11:29:46.978Z,12
2023-01-18T11:30:47.828Z,12
2023-01-18T11:31:48.477Z,8
2023-01-18T11:32:49.082Z,8
2023-01-18T11:33:49.676Z,8
2023-01-18T11:34:50.281Z,8
2023-01-18T11:35:50.871Z,8
2023-01-18T11:36:51.470Z,8
2023-01-18T11:37:52.067Z,8
2023-01-18T11:38:52.668Z,8
2023-01-18T11:39:53.261Z,8
2023-01-18T11:40:53.861Z,4
2023-01-18T11:41:54.456Z,8
2023-01-18T11:42:55.060Z,8
2023-01-18T11:43:55.655Z,8
2023-01-18T11:44:56.254Z,8
2023-01-18T11:45:56.875Z,8
2023-01-18T11:46:58.323Z,8
2023-01-18T11:47:59.300Z,12
2023-01-18T11:49:00.102Z,8
2023-01-18T11:50:05.643Z,8
2023-01-18T11:51:02.276Z,12
2023-01-18T11:52:02.880Z,12
2023-01-18T11:53:03.487Z,12
2023-01-18T11:54:04.073Z,8
2023-01-18T11:55:04.669Z,12
2023-01-18T11:56:05.258Z,8
2023-01-18T11:57:05.912Z,12
2023-01-18T11:58:06.509Z,20
2023-01-18T11:59:07.111Z,16
2023-01-18T12:00:09.635Z,16
2023-01-18T12:01:10.187Z,16
2023-01-18T12:02:10.860Z,20
2023-01-18T12:03:11.615Z,20
2023-01-18T12:04:12.244Z,16
2023-01-18T12:05:12.879Z,20
2023-01-18T12:06:13.613Z,20
2023-01-18T12:07:14.210Z,20
2023-01-18T12:08:14.810Z,24
2023-01-18T12:09:15.474Z,24
2023-01-18T12:10:16.121Z,24
2023-01-18T12:11:16.727Z,24
2023-01-18T12:12:19.747Z,16
2023-01-18T12:13:18.887Z,16
2023-01-18T12:14:19.481Z,12
2023-01-18T12:15:20.088Z,16
2023-01-18T12:16:20.785Z,12
2023-01-18T12:17:22.224Z,16
2023-01-18T12:18:22.819Z,16
2023-01-18T12:19:23.420Z,16
2023-01-18T12:20:24.019Z,16
2023-01-18T12:21:24.616Z,12
2023-01-18T12:22:25.221Z,16
2023-01-18T12:23:25.808Z,20
2023-01-18T12:24:26.404Z,20
2023-01-18T12:25:27.006Z,20
2023-01-18T12:26:27.598Z,16
2023-01-18T12:27:28.206Z,16
2023-01-18T12:28:28.796Z,20
2023-01-18T12:29:29.395Z,16
2023-01-18T12:30:30.903Z,16
2023-01-18T12:31:31.495Z,16
2023-01-18T12:32:33.090Z,12
2023-01-18T12:33:43.432Z,12
2023-01-18T12:34:36.130Z,12
2023-01-18T12:35:37.581Z,8
2023-01-18T12:36:38.179Z,8
2023-01-18T12:37:39.582Z,8
2023-01-18T12:38:41.101Z,8
2023-01-18T12:39:41.696Z,8
2023-01-18T12:40:42.286Z,8
2023-01-18T12:41:42.890Z,4
2023-01-18T12:42:43.614Z,4
2023-01-18T12:43:44.210Z,4
2023-01-18T12:44:44.806Z,8
2023-01-18T12:45:45.442Z,4
2023-01-18T12:46:46.087Z,8
2023-01-18T12:47:46.689Z,8
2023-01-18T12:48:47.284Z,4
2023-01-18T12:49:47.887Z,8
2023-01-18T12:50:48.486Z,8
2023-01-18T12:51:49.149Z,8
2023-01-18T12:52:49.745Z,8
2023-01-18T12:53:50.345Z,8
2023-01-18T12:54:50.941Z,12
2023-01-18T12:55:51.541Z,12
2023-01-18T12:56:52.136Z,12
2023-01-18T12:57:52.803Z,12
2023-01-18T12:58:53.404Z,12
2023-01-18T12:59:54.099Z,16
2023-01-18T13:00:54.737Z,16
2023-01-18T13:01:55.396Z,16
2023-01-18T13:02:55.997Z,16
2023-01-18T13:03:56.627Z,16
2023-01-18T13:04:57.219Z,16
2023-01-18T13:05:57.828Z,12
2023-01-18T13:06:58.419Z,16
2023-01-18T13:07:59.366Z,16
2023-01-18T13:09:00.148Z,16
2023-01-18T13:10:00.743Z,16
2023-01-18T13:11:01.357Z,16
2023-01-18T13:12:01.958Z,16
2023-01-18T13:13:02.558Z,16
2023-01-18T13:14:03.456Z,16
2023-01-18T13:15:04.605Z,16
2023-01-18T13:16:05.318Z,16
2023-01-18T13:17:05.937Z,16
2023-01-18T13:18:06.594Z,16
2023-01-18T13:19:07.192Z,16
2023-01-18T13:20:07.794Z,16
2023-01-18T13:21:08.392Z,16
2023-01-18T13:22:08.992Z,16
2023-01-18T13:23:09.600Z,12
2023-01-18T13:24:10.188Z,12
2023-01-18T13:25:10.794Z,12
2023-01-18T13:26:11.387Z,12
2023-01-18T13:27:11.991Z,12
2023-01-18T13:28:12.585Z,12
2023-01-18T13:29:13.200Z,16
2023-01-18T13:30:13.799Z,16
2023-01-18T13:31:14.458Z,16
2023-01-18T13:32:15.061Z,16
2023-01-18T13:33:15.659Z,16
2023-01-18T13:34:16.261Z,16
2023-01-18T13:35:21.672Z,16
2023-01-18T13:36:21.628Z,16
2023-01-18T13:37:20.891Z,16
2023-01-18T13:38:27.477Z,16
2023-01-18T13:39:23.279Z,16
2023-01-18T13:40:24.732Z,16
2023-01-18T13:41:25.326Z,12
2023-01-18T13:42:26.079Z,16
2023-01-18T13:43:26.677Z,16
2023-01-18T13:44:27.277Z,16
2023-01-18T13:45:27.868Z,16
2023-01-18T13:46:28.529Z,16
2023-01-18T13:47:29.153Z,16
2023-01-18T13:48:29.822Z,16
2023-01-18T13:49:37.189Z,16
2023-01-18T13:50:32.013Z,16
2023-01-18T13:51:32.599Z,16
2023-01-18T13:52:33.201Z,16
2023-01-18T13:53:33.877Z,16
2023-01-18T13:54:34.520Z,16
2023-01-18T13:55:35.184Z,16
2023-01-18T13:56:35.789Z,16
2023-01-18T13:57:36.384Z,16
2023-01-18T13:58:37.073Z,16
2023-01-18T13:59:37.649Z,16
2023-01-18T14:00:38.258Z,16
2023-01-18T14:01:38.975Z,20
2023-01-18T14:02:39.587Z,20
2023-01-18T14:03:40.249Z,20
2023-01-18T14:04:40.857Z,20
2023-01-18T14:05:41.523Z,20
2023-01-18T14:06:42.128Z,24
2023-01-18T14:07:42.722Z,24
2023-01-18T14:08:43.329Z,24
2023-01-18T14:09:43.931Z,28
2023-01-18T14:10:44.591Z,32
2023-01-18T14:11:45.184Z,32
2023-01-18T14:12:45.787Z,36
2023-01-18T14:13:47.222Z,36
2023-01-18T14:14:47.843Z,36
2023-01-18T14:15:48.440Z,36
2023-01-18T14:16:49.027Z,36
2023-01-18T14:17:58.183Z,24
2023-01-18T14:18:50.291Z,24
2023-01-18T14:19:50.886Z,20
2023-01-18T14:20:51.497Z,20
2023-01-18T14:21:52.149Z,12
2023-01-18T14:22:52.751Z,12
2023-01-18T14:23:53.348Z,16
2023-01-18T14:24:53.951Z,8
2023-01-18T14:25:54.545Z,8
2023-01-18T14:26:55.143Z,8
2023-01-18T14:27:55.747Z,12
2023-01-18T14:28:56.351Z,12
2023-01-18T14:29:56.947Z,12
2023-01-18T14:30:57.585Z,24
2023-01-18T14:31:58.172Z,16
2023-01-18T14:32:59.076Z,12
2023-01-18T14:33:59.752Z,16
2023-01-18T14:35:00.353Z,16
2023-01-18T14:36:01.169Z,20
2023-01-18T14:37:01.783Z,16
2023-01-18T14:38:16.937Z,16
2023-01-18T14:39:03.973Z,16
2023-01-18T14:40:04.575Z,16
2023-01-18T14:41:05.290Z,16
2023-01-18T14:42:05.831Z,20
2023-01-18T14:43:06.555Z,16
2023-01-18T14:44:07.194Z,8
2023-01-18T14:45:07.800Z,12
2023-01-18T14:46:08.506Z,48
2023-01-18T14:47:23.305Z,52
2023-01-18T14:48:11.680Z,36
2023-01-18T14:49:12.285Z,24